Rocky, Oklahoma
Current Conditions -  °F | °C
As of 5:53 AM on Monday 20 Oct 2014 (Local Time) from KHBR Reporting Station
Broken Clouds Broken Clouds  
Wind Chill: 60°   Ceiling: 8000
Heat Index: 60°   Visibility: 7mi
Dew Point: 57°   Wind: 10mph
Humidity: 90%   Direction: 200°SSW
Pressure: 30.05"   Gusts: NA
Location:  35.16°N, 99.06°W
Report Text: KHBR 201053Z AUTO 20009KT 7SM BKN080 16/14 A3005 RMK AO2 SLP164 T01560139
Loading
Personal Weather Stations






























Interactive Weather Map
Tropical Storm Tracking
New forecast layout! Learn more

10-Day Weather Forecast

Advertisements
Track Severe Weather on mobile